createdAt,value
2023-01-15T00:01:52.689Z,96855.88
2023-01-15T00:04:19.255Z,96868.53
2023-01-15T00:06:45.760Z,96856.06
2023-01-15T00:09:15.734Z,96856.72
2023-01-15T00:11:42.447Z,96866.47
2023-01-15T00:14:09.210Z,96856.00
2023-01-15T00:16:35.689Z,96862.47
2023-01-15T00:19:04.576Z,96870.78
2023-01-15T00:21:31.390Z,96857.97
2023-01-15T00:24:16.621Z,96861.88
2023-01-15T00:27:02.488Z,96864.44
2023-01-15T00:29:29.525Z,96858.28
2023-01-15T00:32:05.578Z,96867.66
2023-01-15T00:34:33.374Z,96870.88
2023-01-15T00:37:00.155Z,96875.72
2023-01-15T00:39:26.857Z,96874.59
2023-01-15T00:41:55.319Z,96870.44
2023-01-15T00:44:22.505Z,96878.66
2023-01-15T00:46:49.266Z,96882.22
2023-01-15T00:49:17.110Z,96885.41
2023-01-15T00:51:43.690Z,96899.44
2023-01-15T00:54:10.292Z,96910.56
2023-01-15T00:56:36.922Z,96925.34
2023-01-15T00:59:05.430Z,96902.34
2023-01-15T01:01:32.625Z,96912.34
2023-01-15T01:03:59.298Z,96911.34
2023-01-15T01:06:26.070Z,96915.41
2023-01-15T01:08:52.678Z,96905.78
2023-01-15T01:11:24.886Z,96915.66
2023-01-15T01:13:51.485Z,96907.56
2023-01-15T01:16:37.741Z,96910.53
2023-01-15T01:19:12.710Z,96907.69
2023-01-15T01:21:41.461Z,96907.44
2023-01-15T01:24:11.334Z,96906.38
2023-01-15T01:26:38.140Z,96908.53
2023-01-15T01:29:05.006Z,96916.13
2023-01-15T01:31:31.544Z,96926.09
2023-01-15T01:33:59.817Z,96937.25
2023-01-15T01:36:34.069Z,96936.69
2023-01-15T01:39:03.508Z,96940.72
2023-01-15T01:41:31.106Z,96938.22
2023-01-15T01:44:28.464Z,96945.31
2023-01-15T01:46:54.917Z,96964.06
2023-01-15T01:49:21.850Z,96960.09
2023-01-15T01:51:56.197Z,96959.63
2023-01-15T01:54:25.690Z,96975.78
2023-01-15T01:56:53.520Z,96978.53
2023-01-15T01:59:22.584Z,96959.06
2023-01-15T02:01:50.297Z,96954.88
2023-01-15T02:04:20.149Z,96961.03
2023-01-15T02:06:46.579Z,96956.69
2023-01-15T02:09:13.399Z,96940.28
2023-01-15T02:11:39.967Z,96940.16
2023-01-15T02:14:20.867Z,96934.59
2023-01-15T02:17:03.230Z,96938.13
2023-01-15T02:19:47.661Z,96921.03
2023-01-15T02:22:46.515Z,96921.75
2023-01-15T02:25:28.621Z,96928.09
2023-01-15T02:28:07.458Z,96930.56
2023-01-15T02:30:47.513Z,96940.00
2023-01-15T02:33:26.424Z,96948.75
2023-01-15T02:36:00.757Z,96947.22
2023-01-15T02:38:37.524Z,96946.94
2023-01-15T02:41:16.398Z,96946.00
2023-01-15T02:43:47.817Z,96937.53
2023-01-15T02:46:18.276Z,96931.47
2023-01-15T02:48:54.306Z,96913.31
2023-01-15T02:51:28.532Z,96909.81
2023-01-15T02:54:01.454Z,96909.38
2023-01-15T02:56:33.259Z,96911.25
2023-01-15T02:59:09.134Z,96907.00
2023-01-15T03:01:53.596Z,96912.59
2023-01-15T03:04:32.040Z,96926.38
2023-01-15T03:07:12.502Z,96913.31
2023-01-15T03:09:39.209Z,96897.88
2023-01-15T03:12:30.779Z,96914.59
2023-01-15T03:15:11.419Z,96931.00
2023-01-15T03:17:52.508Z,96900.50
2023-01-15T03:20:27.748Z,96897.72
2023-01-15T03:23:05.574Z,96897.94
2023-01-15T03:25:43.877Z,96889.63
2023-01-15T03:28:14.240Z,96897.72
2023-01-15T03:30:41.182Z,96906.31
2023-01-15T03:33:11.556Z,96919.84
2023-01-15T03:35:58.647Z,96920.19
2023-01-15T03:38:36.972Z,96924.94
2023-01-15T03:41:38.815Z,96930.50
2023-01-15T03:44:32.896Z,96937.16
2023-01-15T03:47:30.273Z,96936.72
2023-01-15T03:50:35.487Z,96930.50
2023-01-15T03:53:18.317Z,96921.91
2023-01-15T03:56:05.040Z,96917.28
2023-01-15T03:59:06.718Z,96921.91
2023-01-15T04:01:40.908Z,96917.88
2023-01-15T04:04:09.071Z,96919.09
2023-01-15T04:06:40.109Z,96920.97
2023-01-15T04:09:10.464Z,96925.13
2023-01-15T04:11:38.295Z,96929.03
2023-01-15T04:14:05.629Z,96920.22
2023-01-15T04:16:34.429Z,96928.81
2023-01-15T04:19:00.875Z,96927.03
2023-01-15T04:21:27.359Z,96931.69
2023-01-15T04:23:53.925Z,96925.38
2023-01-15T04:26:20.526Z,96921.44
2023-01-15T04:28:47.030Z,96927.38
2023-01-15T04:31:14.011Z,96927.50
2023-01-15T04:33:40.797Z,96912.06
2023-01-15T04:36:08.877Z,96914.31
2023-01-15T04:38:38.149Z,96906.81
2023-01-15T04:41:24.692Z,96900.56
2023-01-15T04:44:06.495Z,96905.88
2023-01-15T04:46:51.066Z,96883.50
2023-01-15T04:49:18.326Z,96871.28
2023-01-15T04:51:45.542Z,96882.69
2023-01-15T04:54:15.467Z,96886.47
2023-01-15T04:56:50.165Z,96882.06
2023-01-15T04:59:19.759Z,96898.69
2023-01-15T05:02:01.858Z,96914.69
2023-01-15T05:04:30.520Z,96929.41
2023-01-15T05:06:57.049Z,96924.47
2023-01-15T05:09:23.524Z,96914.13
2023-01-15T05:11:50.024Z,96912.34
2023-01-15T05:14:16.526Z,96898.47
2023-01-15T05:16:43.011Z,96901.31
2023-01-15T05:19:10.364Z,96903.03
2023-01-15T05:21:44.691Z,96906.06
2023-01-15T05:24:17.474Z,96905.38
2023-01-15T05:26:44.962Z,96921.03
2023-01-15T05:29:12.684Z,96920.63
2023-01-15T05:31:40.009Z,96918.44
2023-01-15T05:34:06.572Z,96923.09
2023-01-15T05:36:33.211Z,96933.31
2023-01-15T05:39:01.760Z,96934.41
2023-01-15T05:41:48.607Z,96930.72
2023-01-15T05:44:34.306Z,96931.97
2023-01-15T05:47:07.521Z,96928.75
2023-01-15T05:49:34.552Z,96931.13
2023-01-15T05:52:02.129Z,96924.81
2023-01-15T05:54:35.350Z,96925.84
2023-01-15T05:57:02.912Z,96935.47
2023-01-15T05:59:32.373Z,96936.50
2023-01-15T06:01:59.347Z,96928.13
2023-01-15T06:04:26.863Z,96924.59
2023-01-15T06:06:55.335Z,96937.31
2023-01-15T06:09:23.244Z,96941.25
2023-01-15T06:11:50.439Z,96942.28
2023-01-15T06:14:17.648Z,96932.47
2023-01-15T06:16:44.251Z,96937.25
2023-01-15T06:19:13.278Z,96935.47
2023-01-15T06:21:40.663Z,96928.31
2023-01-15T06:24:08.631Z,96929.97
2023-01-15T06:26:35.661Z,96938.34
2023-01-15T06:29:02.155Z,96931.34
2023-01-15T06:31:28.757Z,96937.75
2023-01-15T06:33:55.910Z,96939.75
2023-01-15T06:36:25.814Z,96940.47
2023-01-15T06:38:52.680Z,96927.44
2023-01-15T06:41:41.668Z,96934.91
2023-01-15T06:44:36.258Z,96946.31
2023-01-15T06:47:23.660Z,96948.81
2023-01-15T06:49:56.338Z,96950.47
2023-01-15T06:52:25.304Z,96959.84
2023-01-15T06:54:52.502Z,96952.44
2023-01-15T06:57:19.708Z,96956.47
2023-01-15T06:59:47.426Z,96964.19
2023-01-15T07:02:14.001Z,96969.75
2023-01-15T07:04:40.463Z,96976.13
2023-01-15T07:07:06.954Z,96973.06
2023-01-15T07:09:33.669Z,96968.38
2023-01-15T07:12:00.204Z,96978.06
2023-01-15T07:14:31.101Z,96975.91
2023-01-15T07:16:59.205Z,96977.78
2023-01-15T07:19:27.149Z,96975.31
2023-01-15T07:21:53.929Z,96964.47
2023-01-15T07:24:20.390Z,96970.91
2023-01-15T07:26:46.961Z,96978.25
2023-01-15T07:29:13.988Z,96980.25
2023-01-15T07:31:40.981Z,96978.97
2023-01-15T07:34:07.864Z,96987.47
2023-01-15T07:36:34.359Z,96980.34
2023-01-15T07:39:00.788Z,96998.25
2023-01-15T07:41:47.538Z,96995.84
2023-01-15T07:44:32.856Z,96994.13
2023-01-15T07:47:17.992Z,97000.06
2023-01-15T07:49:48.624Z,97007.28
2023-01-15T07:52:21.631Z,97016.47
2023-01-15T07:54:50.500Z,97022.38
2023-01-15T07:57:21.576Z,97017.22
2023-01-15T07:59:49.728Z,97022.88
2023-01-15T08:02:16.417Z,97025.91
2023-01-15T08:04:43.454Z,97018.63
2023-01-15T08:07:10.412Z,97026.75
2023-01-15T08:09:37.010Z,97023.19
2023-01-15T08:12:23.405Z,97016.72
2023-01-15T08:15:08.783Z,97023.72
2023-01-15T08:17:40.576Z,97026.09
2023-01-15T08:20:19.555Z,97032.75
2023-01-15T08:22:46.839Z,97029.59
2023-01-15T08:25:18.095Z,97041.53
2023-01-15T08:27:45.246Z,97033.16
2023-01-15T08:30:21.441Z,97033.84
2023-01-15T08:32:48.073Z,97034.94
2023-01-15T08:35:14.699Z,97054.56
2023-01-15T08:37:42.486Z,97056.13
2023-01-15T08:40:11.701Z,97059.22
2023-01-15T08:42:38.735Z,97051.78
2023-01-15T08:45:06.085Z,97051.34
2023-01-15T08:47:32.613Z,97048.53
2023-01-15T08:49:59.323Z,97053.97
2023-01-15T08:52:25.831Z,97054.66
2023-01-15T08:54:52.296Z,97057.69
2023-01-15T08:57:18.822Z,97069.91
2023-01-15T08:59:47.576Z,97074.09
2023-01-15T09:02:15.625Z,97086.63
2023-01-15T09:04:42.374Z,97093.75
2023-01-15T09:07:09.062Z,97097.03
2023-01-15T09:09:35.609Z,97103.38
2023-01-15T09:12:02.439Z,97116.94
2023-01-15T09:14:58.928Z,97112.84
2023-01-15T09:17:15.398Z,97117.44
2023-01-15T09:19:41.911Z,97107.19
2023-01-15T09:22:08.428Z,97111.97
2023-01-15T09:24:34.887Z,97122.31
2023-01-15T09:27:01.329Z,97135.25
2023-01-15T09:29:27.763Z,97116.47
2023-01-15T09:31:54.286Z,97119.03
2023-01-15T09:34:20.777Z,97133.63
2023-01-15T09:36:47.429Z,97151.94
2023-01-15T09:39:13.960Z,97145.56
2023-01-15T09:42:23.887Z,97136.00
2023-01-15T09:45:14.814Z,97151.22
2023-01-15T09:48:23.588Z,97145.44
2023-01-15T09:51:14.215Z,97136.06
2023-01-15T09:53:59.465Z,97111.66
2023-01-15T09:56:30.403Z,97107.84
2023-01-15T09:59:03.491Z,97108.16
2023-01-15T10:01:33.376Z,97109.00
2023-01-15T10:04:12.765Z,97109.63
2023-01-15T10:07:13.050Z,97106.63
2023-01-15T10:09:42.328Z,97107.31
2023-01-15T10:12:37.133Z,97118.94
2023-01-15T10:15:32.578Z,97096.09
2023-01-15T10:18:00.265Z,97097.63
2023-01-15T10:21:02.731Z,97097.94
2023-01-15T10:24:03.163Z,97101.03
2023-01-15T10:26:39.002Z,97099.97
2023-01-15T10:29:46.625Z,97113.31
2023-01-15T10:32:26.998Z,97115.53
2023-01-15T10:35:14.997Z,97107.19
2023-01-15T10:37:48.592Z,97104.66
2023-01-15T10:40:53.871Z,97102.88
2023-01-15T10:43:38.374Z,97106.59
2023-01-15T10:46:16.849Z,97106.72
2023-01-15T10:48:53.764Z,97106.31
2023-01-15T10:51:27.840Z,97107.22
2023-01-15T10:54:12.236Z,97108.38
2023-01-15T10:56:53.338Z,97125.16
2023-01-15T10:59:56.464Z,97130.59
2023-01-15T11:02:43.539Z,97138.34
2023-01-15T11:05:21.320Z,97144.81
2023-01-15T11:08:26.344Z,97137.19
2023-01-15T11:10:41.303Z,97138.97
2023-01-15T11:13:45.443Z,97128.75
2023-01-15T11:17:00.982Z,97141.94
2023-01-15T11:19:36.985Z,97131.72
2023-01-15T11:22:20.120Z,97125.78
2023-01-15T11:24:58.880Z,97126.13
2023-01-15T11:27:33.965Z,97117.00
2023-01-15T11:30:03.937Z,97114.91
2023-01-15T11:32:34.032Z,97107.22
2023-01-15T11:35:17.701Z,97116.38
2023-01-15T11:37:44.726Z,97108.53
2023-01-15T11:40:23.563Z,97108.25
2023-01-15T11:43:10.121Z,97109.38
2023-01-15T11:46:13.213Z,97116.94
2023-01-15T11:49:21.195Z,97113.97
2023-01-15T11:51:49.277Z,97106.00
2023-01-15T11:54:16.822Z,97109.63
2023-01-15T11:56:45.915Z,97112.06
2023-01-15T11:59:19.691Z,97104.13
2023-01-15T12:02:12.068Z,97115.50
2023-01-15T12:04:58.988Z,97103.72
2023-01-15T12:07:26.824Z,97103.88
2023-01-15T12:10:40.436Z,97096.44
2023-01-15T12:13:31.728Z,97107.06
2023-01-15T12:16:12.777Z,97095.38
2023-01-15T12:18:56.631Z,97097.59
2023-01-15T12:21:35.092Z,97094.53
2023-01-15T12:24:13.608Z,97091.94
2023-01-15T12:27:31.632Z,97097.59
2023-01-15T12:30:17.604Z,97099.66
2023-01-15T12:32:53.991Z,97086.47
2023-01-15T12:35:32.152Z,97098.66
2023-01-15T12:38:20.994Z,97098.91
2023-01-15T12:41:19.622Z,97084.75
2023-01-15T12:44:13.132Z,97091.88
2023-01-15T12:46:45.163Z,97086.78
2023-01-15T12:49:57.380Z,97088.31
2023-01-15T12:52:36.239Z,97081.16
2023-01-15T12:55:18.408Z,97098.81
2023-01-15T12:57:51.491Z,97073.59
2023-01-15T13:00:30.214Z,97073.38
2023-01-15T13:03:32.812Z,97072.97
2023-01-15T13:06:05.267Z,97077.63
2023-01-15T13:09:11.555Z,97085.63
2023-01-15T13:11:38.092Z,97090.50
2023-01-15T13:14:16.279Z,97092.59
2023-01-15T13:17:01.641Z,97094.03
2023-01-15T13:19:59.670Z,97103.72
2023-01-15T13:22:32.127Z,97099.19
2023-01-15T13:25:18.151Z,97106.66
2023-01-15T13:27:59.095Z,97102.22
2023-01-15T13:30:52.393Z,97108.06
2023-01-15T13:33:32.434Z,97099.78
2023-01-15T13:36:14.538Z,97104.75
2023-01-15T13:38:49.151Z,97109.09
2023-01-15T13:42:00.801Z,97107.31
2023-01-15T13:44:37.380Z,97116.69
2023-01-15T13:47:17.702Z,97116.50
2023-01-15T13:49:59.523Z,97123.16
2023-01-15T13:52:34.969Z,97116.34
2023-01-15T13:55:28.787Z,97122.44
2023-01-15T13:57:55.616Z,97112.16
2023-01-15T14:00:36.861Z,97110.84
2023-01-15T14:03:27.667Z,97121.88
2023-01-15T14:05:58.660Z,97119.13
2023-01-15T14:08:44.543Z,97117.47
2023-01-15T14:11:37.883Z,97129.31
2023-01-15T14:14:33.100Z,97131.94
2023-01-15T14:17:50.545Z,97130.91
2023-01-15T14:20:54.288Z,97125.03
2023-01-15T14:23:58.278Z,97110.53
2023-01-15T14:27:04.696Z,97120.97
2023-01-15T14:30:09.646Z,97111.69
2023-01-15T14:32:44.829Z,97120.03
2023-01-15T14:35:21.853Z,97130.97
2023-01-15T14:38:04.063Z,97126.22
2023-01-15T14:40:34.811Z,97124.56
2023-01-15T14:43:18.969Z,97122.44
2023-01-15T14:45:49.996Z,97128.41
2023-01-15T14:48:27.468Z,97136.00
2023-01-15T14:50:57.179Z,97130.50
2023-01-15T14:53:38.289Z,97142.38
2023-01-15T14:56:27.213Z,97148.88
2023-01-15T14:59:22.094Z,97151.81
2023-01-15T15:01:49.372Z,97150.44
2023-01-15T15:04:33.300Z,97154.34
2023-01-15T15:07:16.872Z,97158.69
2023-01-15T15:10:00.365Z,97163.19
2023-01-15T15:12:48.259Z,97160.78
2023-01-15T15:15:27.079Z,97175.03
2023-01-15T15:18:01.510Z,97167.69
2023-01-15T15:20:58.919Z,97166.34
2023-01-15T15:23:42.179Z,97172.22
2023-01-15T15:26:25.561Z,97167.13
2023-01-15T15:29:17.939Z,97160.91
2023-01-15T15:31:59.874Z,97169.22
2023-01-15T15:34:39.416Z,97165.34
2023-01-15T15:37:28.253Z,97150.34
2023-01-15T15:40:20.507Z,97151.72
2023-01-15T15:43:20.032Z,97165.53
2023-01-15T15:46:14.516Z,97152.13
2023-01-15T15:48:41.799Z,97158.41
2023-01-15T15:51:45.331Z,97162.25
2023-01-15T15:54:30.599Z,97164.16
2023-01-15T15:57:18.725Z,97165.19
2023-01-15T15:59:52.119Z,97166.22
2023-01-15T16:02:28.223Z,97169.47
2023-01-15T16:04:59.901Z,97163.19
2023-01-15T16:07:33.854Z,97164.72
2023-01-15T16:10:12.251Z,97169.03
2023-01-15T16:12:47.000Z,97160.38
2023-01-15T16:15:28.312Z,97167.34
2023-01-15T16:17:57.217Z,97169.53
2023-01-15T16:20:25.189Z,97167.59
2023-01-15T16:23:02.320Z,97154.72
2023-01-15T16:25:35.351Z,97160.91
2023-01-15T16:28:03.258Z,97171.75
2023-01-15T16:30:35.448Z,97158.97
2023-01-15T16:33:06.810Z,97167.97
2023-01-15T16:35:37.154Z,97163.97
2023-01-15T16:38:05.330Z,97167.59
2023-01-15T16:40:37.194Z,97173.03
2023-01-15T16:43:25.839Z,97167.78
2023-01-15T16:46:17.611Z,97168.28
2023-01-15T16:48:48.442Z,97171.88
2023-01-15T16:51:26.846Z,97167.91
2023-01-15T16:53:53.820Z,97164.03
2023-01-15T16:56:53.050Z,97159.22
2023-01-15T16:59:45.451Z,97167.94
2023-01-15T17:02:16.619Z,97173.69
2023-01-15T17:04:48.085Z,97169.66
2023-01-15T17:07:39.120Z,97173.44
2023-01-15T17:10:20.701Z,97178.47
2023-01-15T17:12:47.625Z,97181.47
2023-01-15T17:15:14.049Z,97173.22
2023-01-15T17:17:51.579Z,97175.19
2023-01-15T17:20:23.860Z,97174.88
2023-01-15T17:22:50.357Z,97170.06
2023-01-15T17:25:33.543Z,97178.38
2023-01-15T17:28:03.417Z,97174.34
2023-01-15T17:30:32.918Z,97180.94
2023-01-15T17:33:02.406Z,97177.88
2023-01-15T17:35:36.734Z,97178.53
2023-01-15T17:38:05.072Z,97174.97
2023-01-15T17:40:32.704Z,97171.66
2023-01-15T17:42:59.284Z,97169.88
2023-01-15T17:45:29.479Z,97168.75
2023-01-15T17:47:56.744Z,97163.06
2023-01-15T17:50:24.299Z,97168.00
2023-01-15T17:52:51.437Z,97168.84
2023-01-15T17:55:40.566Z,97171.78
2023-01-15T17:58:29.218Z,97165.41
2023-01-15T18:01:15.184Z,97166.97
2023-01-15T18:04:06.716Z,97169.25
2023-01-15T18:06:34.261Z,97171.03
2023-01-15T18:09:05.750Z,97177.78
2023-01-15T18:11:32.474Z,97168.22
2023-01-15T18:13:59.264Z,97168.81
2023-01-15T18:16:26.391Z,97166.78
2023-01-15T18:18:54.098Z,97163.59
2023-01-15T18:21:21.580Z,97161.63
2023-01-15T18:23:48.130Z,97164.22
2023-01-15T18:26:15.086Z,97164.63
2023-01-15T18:28:41.567Z,97158.31
2023-01-15T18:31:08.500Z,97162.06
2023-01-15T18:33:35.285Z,97164.16
2023-01-15T18:36:12.414Z,97164.69
2023-01-15T18:38:46.917Z,97177.22
2023-01-15T18:41:35.427Z,97177.97
2023-01-15T18:44:26.311Z,97170.22
2023-01-15T18:46:57.377Z,97166.59
2023-01-15T18:49:24.139Z,97167.22
2023-01-15T18:52:25.998Z,97161.69
2023-01-15T18:54:53.116Z,97161.81
2023-01-15T18:57:19.665Z,97160.34
2023-01-15T18:59:49.056Z,97159.91
2023-01-15T19:02:21.440Z,97160.53
2023-01-15T19:04:48.515Z,97140.03
2023-01-15T19:07:17.218Z,97146.19
2023-01-15T19:09:43.680Z,97144.81
2023-01-15T19:12:10.927Z,97147.44
2023-01-15T19:14:56.169Z,97148.56
2023-01-15T19:17:44.104Z,97147.44
2023-01-15T19:20:15.680Z,97149.84
2023-01-15T19:23:05.050Z,97152.78
2023-01-15T19:25:37.640Z,97151.75
2023-01-15T19:28:06.408Z,97147.84
2023-01-15T19:30:35.566Z,97144.03
2023-01-15T19:33:02.079Z,97140.97
2023-01-15T19:35:28.649Z,97137.53
2023-01-15T19:37:55.914Z,97139.84
2023-01-15T19:40:24.019Z,97126.09
2023-01-15T19:43:10.541Z,97123.50
2023-01-15T19:46:03.439Z,97121.94
2023-01-15T19:48:48.565Z,97122.16
2023-01-15T19:51:15.073Z,97118.19
2023-01-15T19:53:41.671Z,97118.91
2023-01-15T19:56:08.365Z,97116.31
2023-01-15T19:58:37.032Z,97119.44
2023-01-15T20:01:04.174Z,97112.16
2023-01-15T20:03:31.025Z,97109.84
2023-01-15T20:05:57.998Z,97104.22
2023-01-15T20:08:24.507Z,97087.72
2023-01-15T20:10:51.411Z,97103.81
2023-01-15T20:13:43.977Z,97104.94
2023-01-15T20:16:14.893Z,97092.31
2023-01-15T20:18:41.641Z,97091.91
2023-01-15T20:21:08.785Z,97085.22
2023-01-15T20:23:36.604Z,97085.13
2023-01-15T20:26:10.147Z,97073.41
2023-01-15T20:28:39.991Z,97071.66
2023-01-15T20:31:13.617Z,97063.72
2023-01-15T20:33:40.270Z,97063.22
2023-01-15T20:36:07.417Z,97059.44
2023-01-15T20:38:33.935Z,97059.56
2023-01-15T20:41:26.383Z,97055.69
2023-01-15T20:44:11.703Z,97059.31
2023-01-15T20:46:38.353Z,97057.34
2023-01-15T20:49:23.399Z,97059.13
2023-01-15T20:51:50.071Z,97055.69
2023-01-15T20:54:16.573Z,97052.63
2023-01-15T20:56:43.110Z,97046.69
2023-01-15T20:59:09.925Z,97042.22
2023-01-15T21:01:36.468Z,97040.94
2023-01-15T21:04:03.123Z,97040.88
2023-01-15T21:06:29.618Z,97039.94
2023-01-15T21:08:56.209Z,97039.28
2023-01-15T21:11:22.757Z,97036.59
2023-01-15T21:13:49.340Z,97028.16
2023-01-15T21:16:15.955Z,97026.19
2023-01-15T21:18:45.035Z,97025.75
2023-01-15T21:21:15.387Z,97016.47
2023-01-15T21:23:45.304Z,97014.50
2023-01-15T21:26:16.147Z,97002.09
2023-01-15T21:28:44.592Z,96996.97
2023-01-15T21:31:13.376Z,96995.09
2023-01-15T21:33:39.907Z,97006.28
2023-01-15T21:36:13.612Z,96993.63
2023-01-15T21:38:40.204Z,96997.28
2023-01-15T21:41:13.749Z,96995.81
2023-01-15T21:44:00.123Z,96997.69
2023-01-15T21:46:29.597Z,96998.09
2023-01-15T21:48:58.244Z,96983.63
2023-01-15T21:51:27.841Z,96984.25
2023-01-15T21:53:54.538Z,96981.34
2023-01-15T21:56:21.518Z,96971.53
2023-01-15T21:58:48.044Z,96972.88
2023-01-15T22:01:17.995Z,96963.47
2023-01-15T22:03:44.883Z,96959.63
2023-01-15T22:06:11.408Z,96961.59
2023-01-15T22:08:37.910Z,96949.41
2023-01-15T22:11:06.283Z,96939.19
2023-01-15T22:13:33.771Z,96934.50
2023-01-15T22:16:00.830Z,96937.28
2023-01-15T22:18:27.793Z,96929.25
2023-01-15T22:21:15.447Z,96925.41
2023-01-15T22:23:48.939Z,96919.16
2023-01-15T22:26:21.682Z,96917.47
2023-01-15T22:28:48.905Z,96906.81
2023-01-15T22:31:17.620Z,96904.50
2023-01-15T22:33:46.237Z,96910.34
2023-01-15T22:36:14.609Z,96900.84
2023-01-15T22:38:41.591Z,96895.09
2023-01-15T22:41:08.568Z,96900.38
2023-01-15T22:43:35.927Z,96894.41
2023-01-15T22:46:11.513Z,96887.88
2023-01-15T22:48:38.764Z,96883.06
2023-01-15T22:51:06.209Z,96877.50
2023-01-15T22:53:32.768Z,96885.41
2023-01-15T22:56:00.253Z,96882.09
2023-01-15T22:58:26.777Z,96883.94
2023-01-15T23:00:56.950Z,96879.03
2023-01-15T23:03:23.820Z,96876.81
2023-01-15T23:05:50.314Z,96873.13
2023-01-15T23:08:16.989Z,96869.06
2023-01-15T23:10:46.276Z,96860.06
2023-01-15T23:13:13.328Z,96856.09
2023-01-15T23:15:39.849Z,96857.47
2023-01-15T23:18:06.541Z,96849.41
2023-01-15T23:20:33.061Z,96841.63
2023-01-15T23:22:59.583Z,96841.75
2023-01-15T23:25:26.154Z,96840.44
2023-01-15T23:27:52.663Z,96831.78
2023-01-15T23:30:19.351Z,96826.44
2023-01-15T23:32:45.803Z,96817.66
2023-01-15T23:35:12.394Z,96821.81
2023-01-15T23:37:38.996Z,96813.66
2023-01-15T23:40:06.388Z,96812.59
2023-01-15T23:42:51.394Z,96813.78
2023-01-15T23:45:36.644Z,96803.91
2023-01-15T23:48:03.325Z,96798.78
2023-01-15T23:50:29.804Z,96791.19
2023-01-15T23:52:56.324Z,96790.00
2023-01-15T23:55:23.009Z,96779.91
2023-01-15T23:57:49.481Z,96790.00
